Terminal Aerodrome Forecast
Issued by NWS

Home | Current Version | Previous Version | Text Only | Print | Product List | Glossary On
Versions: 1 2 3 4 5 6 7 8 9 10 11 12 13 14 15
000
FTUS46 KLOX 020500
TAFPMD
TAF
KPMD 020520Z 0206/0306 26008KT P6SM SKC
     FM020800 20007KT P6SM BKN200
     FM021400 VRB05KT P6SM BKN200
     FM021800 24009KT P6SM SCT150 OVC200
     FM022100 24012G17KT P6SM SCT100 OVC200
     FM022300 23018G23KT P6SM SCT100 OVC200
     FM030300 20014KT P6SM SCT100 OVC200=

USA.gov is the U.S. government's official web portal to all federal, state and local government web resources and services.